Weather observations for the past three days for
Tazewell County Airport
Imperial (Metric)
Date Time (edt) Wind (mph) Vis. (mi.) Weather Sky Cond. Temperature (ºF) Relative Humidity Wind Chill (°F) Heat Index (°F) Pressure Precipitation (in)
Air Dwpt 6 hour altimeter (in) sea level (mb) 1 hr 3 hr 6 hr
Max. Min.
09 06:15 Calm 10.00 Fair CLR 48.6 42.8 81% 29.9 0.0
09 05:55 S 3 10.00 Fair CLR 50 43.3 78% 29.89 0.0
09 05:35 Calm 10.00 Fair CLR 50 42.8 76% 29.89 0.0
09 05:15 Calm 10.00 Fair CLR 51.3 43 73% 29.9 0.0
09 04:55 Calm 10.00 Fair CLR 50.2 41.4 72% 29.9 0.0
09 04:35 Calm 10.00 Fair CLR 50.4 40.8 70% 29.9 0.0
09 04:15 Calm 10.00 Partly Cloudy SCT033 50 40.1 69% 29.91 0.0
09 03:55 Calm 10.00 Partly Cloudy SCT033 50.2 39 66% 29.91 0.0
09 03:35 Calm 10.00 Fair CLR 49.8 40.3 70% 29.9 0.0
09 03:15 Calm 10.00 Fair CLR 50.7 41.9 72% 29.9 0.0
09 02:55 SW 3 10.00 Fair CLR 51.8 41.7 69% 29.9 0.0
09 02:35 Calm 10.00 Fair CLR 51.3 41 68% 29.91 0.0
09 02:15 S 3 10.00 Fair CLR 51.4 40.3 66% 29.92 0.0
09 01:55 Calm 10.00 Fair CLR 51.6 38.8 59.7 50.4 62% 29.93 0.0
09 01:35 S 3 10.00 Fair CLR 52 35.8 54% 29.93 0.0
09 01:15 S 3 10.00 Fair CLR 53.1 35.6 52% 29.95 0.0
09 00:55 Calm 10.00 Fair CLR 52.2 36 54% 29.95 0.0
09 00:35 SW 3 10.00 Fair CLR 53.2 36.1 52% 29.94 0.0
09 00:15 Calm 10.00 Fair CLR 53.2 36.1 52% 29.94 0.0
08 23:55 Calm 10.00 Fair CLR 54 35.8 50% 29.94 0.0
08 23:35 S 3 10.00 Fair CLR 53.2 35.6 51% 29.94 0.0
08 23:15 S 5 10.00 Fair CLR 52.5 35.1 52% 29.95 0.0
08 22:55 S 3 10.00 Fair CLR 53.8 34.7 49% 29.95 0.0
08 22:35 SW 3 10.00 Fair CLR 55.8 35.1 46% 29.95 0.0
08 22:15 SW 6 10.00 Fair CLR 56.3 34.9 45% 29.96 0.0
08 21:55 SW 5 10.00 Fair CLR 56.8 34.2 43% 29.96 0.0
08 21:35 SW 5 10.00 Fair CLR 56.5 33.3 42% 29.95 0.0
08 21:15 SW 5 10.00 Fair CLR 57 32 39% 29.95 0.0
08 20:55 SW 5 10.00 Fair CLR 57.6 31.6 37% 29.94 0.0
08 20:35 Calm 10.00 Fair CLR 58.3 30.6 35% 29.94 0.0
08 20:15 SW 3 10.00 Fair CLR 58.8 30.4 34% 29.94 0.0
08 19:55 W 6 10.00 Fair CLR 59.7 30 63.3 58.5 32% 29.95 0.0
08 19:35 W 6 10.00 Fair CLR 60.6 30.6 32% 29.95 0.0
08 19:15 W 7 10.00 Fair CLR 61.2 30.9 32% 29.96 0.0
08 18:55 SW 8 10.00 Fair CLR 61.9 30 30% 29.95 0.0
08 18:35 SW 5 10.00 Fair CLR 62.8 30.4 30% 29.95 0.0
08 18:15 SW 6 10.00 Fair CLR 62.6 30.2 30% 29.94 0.0
08 17:55 Calm 10.00 Fair CLR 62.8 31.3 31% 29.94 0.0
08 17:35 SW 5 10.00 Fair CLR 63 32.5 32% 29.94 0.0
08 17:15 W 9 10.00 Fair CLR 63 31.5 31% 29.94 0.0
08 16:55 SW 3 10.00 Fair CLR 62.6 28.8 28% 29.95 0.0
08 16:35 Calm 10.00 Fair CLR 62.2 29.7 29% 29.96 0.0
08 16:15 Calm 10.00 Fair CLR 63 35.6 36% 29.97 0.0
08 15:55 W 7 G 16 10.00 Fair CLR 61.7 35.2 37% 29.98 0.0
08 15:35 W 8 10.00 Fair CLR 61.2 35.6 39% 30 0.0
08 15:15 SW 6 10.00 Fair CLR 61.3 36.7 40% 30 0.0
08 14:55 W 5 10.00 Fair CLR 60.1 34.7 39% 30 0.0
08 14:35 Calm 10.00 Fair CLR 60.1 31.8 35% 30.01 0.0
08 14:15 Calm 10.00 Fair CLR 60.3 32.2 35% 30.01 0.0
08 13:55 SW 6 10.00 Fair CLR 59.2 32.5 59.5 39.2 37% 30.03 0.0
08 13:35 SW 3 10.00 Fair CLR 58.3 32.4 38% 30.03 0.0
08 13:15 Calm 10.00 Fair CLR 57 32 39% 30.04 0.0
08 12:55 Calm 10.00 Fair CLR 57 32.5 40% 30.05 0.0
08 12:35 NW 5 10.00 Fair CLR 56.8 33.6 42% 30.06 0.0
08 12:15 NW 3 10.00 Fair CLR 55.4 32.2 41% 30.07 0.0
08 11:55 NW 5 10.00 Fair CLR 55 32.9 43% 30.07 0.0
08 11:35 N 3 10.00 Fair CLR 55.4 34.2 45% 30.07 0.0
08 11:15 SW 3 10.00 Fair CLR 54.3 36.1 50% 30.08 0.0
08 10:55 SW 3 10.00 Fair CLR 52.7 35.1 51% 30.08 0.0
08 10:35 Calm 10.00 Fair CLR 51.6 35.1 53% 30.07 0.0
08 10:15 Calm 10.00 Fair CLR 51.1 35.4 55% 30.07 0.0
08 09:55 Calm 10.00 Fair CLR 49.5 37 62% 30.07 0.0
08 09:35 Calm 10.00 Fair CLR 48.6 39.7 72% 30.07 0.0
08 09:15 Calm 10.00 Fair CLR 46.6 41 81% 30.07 0.0
08 08:55 Calm 10.00 Partly Cloudy SCT002 44.2 40.3 86% 30.06 0.0
08 08:35 N 3 0.75 Fog/Mist BKN002 41.4 37.2 85% 30.07 0.0
08 08:15 Calm 1.25 Fog/Mist SCT002 40.6 39.4 95% 30.06 0.0
08 07:55 Calm 3.00 Fog/Mist BKN002 39.4 39.2 44.2 34.2 99% 30.06 0.0
08 07:35 Calm 0.15 Fog OVC002 35.6 35.6 100% 30.05 0.0
08 07:15 Calm 0.15 Fog OVC002 34.9 34.9 100% 30.04 0.0
08 06:55 Calm 3.00 Fog/Mist CLR 34.7 34.2 98% 30.04 0.0
08 06:35 SE 3 10.00 Fair CLR 36.5 35.8 97% 30.04 0.0
08 06:15 Calm 10.00 Fair CLR 36.7 35.2 95% 30.03 0.0
08 05:55 Calm 10.00 Fair CLR 37.4 36 95% 30.03 0.0
08 05:35 Calm 10.00 Fair CLR 38.5 37.2 95% 30.03 0.0
08 05:15 Calm 10.00 Fair CLR 38.3 37.8 98% 30.03 0.0
08 04:55 SE 5 10.00 Fair CLR 38.5 38.3 99% 36 30.03 0.0
08 04:35 Calm 10.00 Fair CLR 38.3 37.2 96% 30.02 0.0
08 04:15 Calm 10.00 Fair CLR 40.5 37.6 90% 30.02 0.0
08 03:55 Calm 5.00 Fog/Mist CLR 39.4 39 99% 30.02 0.0
08 03:35 Calm 10.00 Fair CLR 39.9 37.4 91% 30.02 0.0
08 03:15 Calm 10.00 Fair CLR 40.1 37.6 91% 30.02 0.0
08 02:55 Calm 10.00 Fair CLR 44.1 32.4 64% 30.01 0.0
08 02:35 W 5 10.00 Fair CLR 43.2 36.5 77% 41 30.02 0.0
08 02:15 W 5 10.00 Fair CLR 43.2 36.1 76% 41 30.02 0.0
08 01:55 W 5 10.00 Partly Cloudy SCT048 43.3 37.6 50.9 43.3 80% 41 30.03 0.0
08 01:35 W 5 10.00 Mostly Cloudy BKN050 44.6 35.8 71% 43 30.03 0.0
08 01:15 W 5 10.00 Overcast OVC050 45.1 36.5 72% 43 30.03 0.0
08 00:55 W 5 10.00 Overcast OVC050 45.5 36.7 71% 44 30.02 0.0
08 00:35 W 3 10.00 Overcast OVC050 45.9 37 71% 30.01 0.0
08 00:15 W 3 10.00 Overcast OVC050 45.5 38.5 77% 30 0.0
07 23:55 W 3 10.00 Overcast OVC050 45.5 39.2 79% 30.01 0.0
07 23:35 NW 3 10.00 Overcast OVC050 46 39.4 78% 30.01 0.0
07 23:15 Calm 10.00 Mostly Cloudy BKN050 45.3 40.6 84% 30 0.0
07 22:55 NW 3 10.00 Partly Cloudy SCT050 46.8 39.2 75% 30 0.0
07 22:35 W 3 10.00 Overcast OVC050 47.5 39.7 75% 30 0.0
07 22:15 W 3 10.00 Overcast BKN048 OVC055 47.7 40.5 76% 29.99 0.0
07 21:55 Calm 10.00 Overcast OVC048 47.7 41.4 79% 29.98 0.0
07 21:35 NW 3 10.00 Mostly Cloudy BKN050 48.2 40.6 75% 29.97 0.0
07 21:15 Calm 10.00 Overcast SCT046 OVC050 49.1 40.8 73% 29.96 0.0
07 20:55 NW 3 10.00 Mostly Cloudy SCT043 BKN050 49.1 40.1 71% 29.95 0.0
07 20:35 NW 5 10.00 Mostly Cloudy SCT036 SCT044 BKN050 49.5 40.1 70% 48 29.95 0.0
07 20:15 W 3 10.00 Mostly Cloudy SCT039 BKN060 50 40.1 69% 29.95 0.0
07 19:55 NW 3 10.00 Partly Cloudy SCT037 SCT044 51.1 40.1 53.2 47.3 66% 29.95 0.0
07 19:35 W 6 10.00 Partly Cloudy SCT037 SCT046 51.8 39.9 64% 29.94 0.0
07 19:15 W 7 10.00 Fair CLR 52.9 40.3 62% 29.94 0.0
07 18:55 W 6 10.00 Partly Cloudy SCT055 52.5 39.6 62% 29.94 0.0
07 18:35 W 7 10.00 Fair CLR 52.3 40.3 64% 29.94 0.0
07 18:15 W 8 10.00 Partly Cloudy SCT032 SCT043 52.2 40.5 65% 29.93 0.0
07 17:55 NW 7 10.00 Mostly Cloudy SCT032 BKN041 51.8 39.7 64% 29.93 0.0
07 17:35 NW 9 10.00 Partly Cloudy SCT039 52.3 40.1 63% 29.93 0.0
07 17:15 NW 9 10.00 Overcast SCT029 OVC039 52.2 40.5 65% 29.93 0.0
07 16:15 W 3 10.00 Overcast BKN027 OVC035 49.5 42.3 76% 29.92 0.0
07 15:55 NW 3 10.00 Overcast SCT022 BKN032 OVC037 48.9 42.3 78% 29.94 0.0
07 15:35 NW 6 10.00 Overcast BKN022 OVC029 48.7 41.9 77% 47 29.93 0.0
07 15:15 NW 3 10.00 Overcast BKN022 BKN028 OVC033 49.8 43 77% 29.93 0.0
07 14:55 NW 3 10.00 Overcast SCT016 OVC022 49.1 42.3 77% 29.94 0.0
07 14:35 NW 6 10.00 Overcast BKN016 BKN021 OVC031 49.1 43.9 82% 47 29.94 0.0
07 14:15 NW 3 10.00 Overcast OVC016 48.2 43.3 83% 29.94 0.0
07 13:55 Calm 10.00 Overcast OVC014 47.3 43.9 47.5 43.7 88% 29.94 0.0 0.04
07 13:35 Calm 10.00 Overcast SCT008 OVC016 47.3 43.7 87% 29.94 0.0
07 13:15 Calm 10.00 Overcast SCT008 OVC012 46.8 43.9 90% 29.94 0.0
07 12:55 Calm 10.00 Overcast OVC014 46.6 43.3 89% 29.94 0.0
07 12:35 Calm 10.00 Overcast SCT009 OVC016 46.4 43.5 90% 29.94 0.0
07 12:15 Calm 10.00 Overcast SCT007 OVC019 47.1 44.4 90% 29.94 0.0
07 11:55 NE 3 10.00 Overcast SCT007 OVC019 46 43.9 92% 29.94 0.0
07 11:35 E 3 10.00 Overcast SCT007 OVC013 45.1 43.9 95% 29.94 0.0
07 11:15 N 5 10.00 Light Rain SCT002 OVC009 44.2 43.9 99% 42 29.94 0.0
07 10:55 N 3 2.00 Drizzle OVC002 43.9 43.9 100% 29.94 0.0 0.01 0.04
07 10:35 N 3 2.00 Heavy Rain OVC002 43.9 43.9 100% 29.94 0.0 0.01
07 10:15 N 6 0.25 Light Rain OVC002 44.2 44.2 100% 41 29.95 0.0
07 09:55 N 5 1.25 Heavy Rain OVC002 44.1 44.1 100% 42 29.94 0.0 0.01
07 09:35 Calm 1.75 Light Drizzle OVC002 44.2 44.2 100% 29.94 0.0
07 09:15 N 3 2.50 Light Drizzle OVC002 44.2 44.2 100% 29.94 0.0
07 08:55 N 6 1.25 Light Rain OVC002 44.2 44.2 100% 41 29.94 0.0 0.02
07 08:35 NW 6 1.25 Rain OVC002 45 45 100% 42 29.95 0.0 0.01
07 08:15 N 5 0.50 Rain OVC002 45.7 45.7 100% 44 29.94 0.0
07 07:55 NW 3 4.00 Fog/Mist BKN002 OVC008 47.7 47.7 50.2 46.8 100% 29.94 0.0 0.02
07 07:35 Calm 1.25 Fog/Mist OVC002 47.5 47.5 100% 29.93 0.0
07 07:15 Calm 1.75 Light Drizzle OVC002 47.3 47.3 100% 29.93 0.0
07 06:55 Calm 1.00 Light Rain OVC004 46.9 46.9 100% 29.94 0.0
07 06:35 Calm 5.00 Drizzle OVC004 46.9 46.9 100% 29.93 0.0
07 06:15 Calm 10.00 Overcast OVC004 46.9 46.9 100% 29.92 0.0
07 05:55 Calm 7.00 Overcast OVC004 46.9 46.9 100% 29.92 0.0 0.01
07 05:35 Calm 5.00 Light Drizzle OVC004 46.9 46.9 100% 29.92 0.0 0.01
07 05:15 NE 3 5.00 Drizzle OVC004 46.8 46.8 100% 29.92 0.0
07 04:55 N 5 10.00 Light Rain OVC004 46.9 46.9 100% 45 29.93 0.0 0.01
07 04:35 N 5 4.00 Fog/Mist OVC002 47.1 47.1 100% 46 29.93 0.0
07 04:15 Calm 7.00 Overcast OVC002 47.3 47.3 100% 29.92 0.0
07 03:55 N 5 1.00 Fog/Mist OVC002 47.7 47.7 100% 46 29.91 0.0 0.01
07 03:35 NW 5 0.50 Light Drizzle OVC002 48.2 48.2 100% 47 29.93 0.0 0.01
07 03:15 N 6 0.25 Light Rain OVC002 49.1 49.1 100% 47 29.92 0.0 0.01
07 02:55 NW 6 0.50 Light Drizzle OVC002 49.1 49.1 100% 47 29.94 0.0
07 02:35 NW 3 0.75 Light Rain OVC002 50 50 100% 29.94 0.0
07 02:15 N 3 7.00 Light Drizzle OVC002 50 50 100% 29.94 0.0
07 01:55 NW 7 3.00 Fog/Mist OVC002 50.2 50.2 61.7 50.2 100% 29.96 0.0 0.01 0.39
07 01:35 NW 7 0.15 Fog OVC002 51.3 51.3 100% 29.93 0.0 0.01
07 01:15 NW 7 0.15 Fog OVC002 51.8 51.8 100% 29.92 0.0 0.01
07 00:55 Calm 0.15 Light Rain OVC002 51.8 51.8 100% 29.93 0.0
07 00:35 NW 7 G 17 0.15 Fog OVC002 51.8 51.8 100% 29.96 0.0
07 00:15 NW 9 0.15 Fog OVC002 53.1 53.1 100% 29.95 0.0
06 23:55 Calm 4.00 Light Rain OVC002 53.2 53.2 100% 29.93 0.0 0.01
06 23:35 Calm 0.25 Light Rain OVC002 53.1 53.1 100% 29.92 0.0
06 23:15 Calm 3.00 Light Drizzle BKN002 BKN009 OVC085 52.9 52.9 100% 29.93 0.0
06 22:55 Calm 0.25 Fog OVC002 53.1 53.1 100% 29.94 0.0 0.02 0.37
06 22:35 Calm 1.25 Fog/Mist OVC002 53.6 53.6 100% 29.95 0.0 0.02
06 22:15 NW 5 5.00 Light Rain OVC002 53.6 53.6 100% 29.98 0.0 0.02
06 21:55 NW 7 0.25 Fog OVC002 54.5 54.5 100% 29.97 0.0 0.01
06 21:35 NW 6 0.75 Light Rain OVC002 55.4 55.4 100% 29.96 0.0
06 21:15 NW 7 3.00 Light Rain SCT002 BKN012 OVC120 56.1 55.8 99% 29.95 0.0
06 20:55 SW 5 10.00 Drizzle SCT045 BKN095 OVC120 57.2 55 93% 29.93 0.0 0.34
06 20:35 SW 5 10.00 Light Rain SCT004 BKN043 OVC060 57.2 56.1 96% 29.92 0.0 0.33
06 20:15 NW 6 G 18 2.00 Heavy Rain BKN004 OVC012 57.4 56.7 97% 29.92 0.0 0.24
06 19:55 SW 7 10.00 Drizzle BKN014 OVC028 61.7 58.5 63.5 59.9 89% 29.91 0.0
06 19:35 SW 7 10.00 Overcast SCT016 SCT028 OVC042 62.1 58.1 87% 29.9 0.0
06 19:15 W 7 10.00 Overcast OVC043 62.6 57.7 84% 29.9 0.0
06 18:55 SW 7 10.00 Overcast SCT021 SCT026 OVC045 62.6 57.9 85% 29.92 0.0
06 18:35 W 9 10.00 Mostly Cloudy SCT018 SCT024 BKN047 62.8 57.7 84% 29.91 0.0
06 18:15 SW 7 10.00 Mostly Cloudy SCT016 BKN021 BKN026 63.5 57.6 81% 29.9 0.0
06 17:55 SW 9 G 16 10.00 Overcast SCT016 BKN026 OVC042 62.6 57.6 84% 29.92 0.0
06 17:35 SW 8 10.00 Overcast OVC022 61.9 57.4 85% 29.92 0.0
06 17:15 SW 9 G 20 10.00 Overcast OVC018 61.9 57.2 85% 29.91 0.0
06 16:55 SW 14 G 21 10.00 Overcast OVC018 62.1 57.2 84% 29.92 0.0
06 16:35 SW 6 G 17 10.00 Overcast BKN016 BKN025 OVC032 62.6 57.4 83% 29.91 0.0
06 16:15 SW 13 G 22 10.00 Overcast SCT014 BKN025 OVC032 62.8 57.6 83% 29.91 0.0
06 15:55 SW 8 G 16 10.00 Overcast BKN014 OVC023 61.9 57.7 86% 29.92 0.0
06 15:35 SW 9 G 20 10.00 Overcast BKN014 BKN019 OVC024 62.1 58.1 87% 29.92 0.0
06 15:15 SW 8 G 16 10.00 Overcast BKN011 OVC015 62.6 58.8 88% 29.92 0.0
06 14:55 SW 10 G 21 10.00 Overcast BKN009 OVC014 61.2 57.9 89% 29.92 0.0
06 14:35 W 12 G 18 10.00 Overcast OVC009 60.4 58.1 92% 29.91 0.0
06 14:15 SW 10 G 20 10.00 Overcast OVC011 60.1 57.6 91% 29.91 0.0
06 13:55 SW 14 G 28 10.00 Overcast OVC014 60.4 57.2 61 54.3 89% 29.92 0.0 0.47
06 13:35 W 10 G 21 10.00 Overcast OVC016 60.8 57.6 89% 29.92 0.0
06 13:15 W 10 G 17 10.00 Mostly Cloudy SCT010 BKN016 BKN060 60.8 57.6 89% 29.92 0.0
06 12:55 SW 8 G 18 10.00 Light Rain OVC014 59.2 57.4 94% 29.93 0.0 0.02
06 12:35 SW 13 G 20 10.00 Light Rain SCT005 OVC012 58.6 57.2 95% 29.93 0.0 0.02
06 12:15 SW 9 G 18 10.00 Light Rain BKN007 OVC010 58.1 57.2 97% 29.95 0.0 0.01
06 11:55 SW 8 G 16 7.00 Rain OVC007 58.1 57.4 97% 29.96 0.0 0.07
06 11:35 SW 8 7.00 Rain OVC007 57.7 57.2 98% 29.96 0.0 0.05
06 11:15 W 7 10.00 Rain OVC011 57.2 56.5 97% 29.95 0.0 0.01
06 10:55 W 9 10.00 Light Rain OVC013 57.4 55.6 94% 29.93 0.0 0.01 0.38
06 10:35 W 8 10.00 Light Rain BKN015 OVC026 57.2 55.6 94% 29.93 0.0 0.01
06 10:15 SW 7 10.00 Light Rain BKN015 OVC026 56.3 55.4 97% 29.93 0.0
06 09:55 S 3 7.00 Rain OVC017 56.3 55 96% 29.92 0.0 0.06
06 09:35 SW 5 10.00 Rain SCT003 OVC019 54.7 54.5 99% 29.92 0.0 0.04
06 09:15 W 3 1.25 Light Rain BKN003 BKN021 OVC026 54.5 54.5 100% 29.93 0.0 0.04
06 08:55 SW 8 3.00 Heavy Rain SCT011 BKN037 OVC060 54.9 54.5 99% 29.93 0.0 0.31
06 08:35 SW 13 G 21 3.00 Heavy Rain SCT015 BKN048 OVC075 55.8 54.1 94% 29.93 0.0 0.21
06 08:15 SW 10 G 18 3.00 Heavy Rain SCT015 BKN075 OVC090 55.4 54.5 97% 29.91 0.0 0.09
06 07:55 SW 10 G 18 7.00 Rain SCT024 BKN075 OVC090 55.4 54 63.1 55.4 95% 29.9 0.0 0.17 0.17
06 07:35 SW 12 G 21 5.00 Heavy Rain SCT017 BKN065 OVC090 56.3 53.6 91% 29.89 0.0 0.11
06 07:15 SW 12 G 20 10.00 Light Rain OVC100 57.2 52.2 83% 29.88 0.0 0.01
06 06:55 SW 15 G 21 10.00 Rain SCT035 SCT075 OVC100 59.2 50.7 74% 29.87 0.0
Date Time (edt) Wind (mph) Vis. (mi.) Weather Sky Cond. Air Dwpt Max. Min. Relative Humidity Wind Chill (°F) Heat Index (°F) altimeter (in) sea level (mb) 1 hr 3 hr 6 hr
6 hour
Temperature (ºF) Pressure Precipitation (in)